createdAt,value
2018-12-19T00:00:35.706Z,98405.92
2018-12-19T00:03:04.002Z,98405.14
2018-12-19T00:05:38.964Z,98402.02
2018-12-19T00:08:07.214Z,98399.12
2018-12-19T00:10:35.531Z,98393.09
2018-12-19T00:13:03.839Z,98393.05
2018-12-19T00:15:32.733Z,98398.99
2018-12-19T00:18:01.130Z,98395.50
2018-12-19T00:20:29.531Z,98386.91
2018-12-19T00:22:57.935Z,98383.28
2018-12-19T00:25:26.245Z,98390.37
2018-12-19T00:27:54.534Z,98390.11
2018-12-19T00:30:22.873Z,98384.63
2018-12-19T00:32:51.135Z,98386.41
2018-12-19T00:35:19.462Z,98379.63
2018-12-19T00:37:47.853Z,98375.87
2018-12-19T00:40:16.178Z,98369.02
2018-12-19T00:42:44.491Z,98369.97
2018-12-19T00:45:12.830Z,98362.87
2018-12-19T00:47:41.110Z,98369.46
2018-12-19T00:50:09.812Z,98371.08
2018-12-19T00:52:38.121Z,98362.73
2018-12-19T00:55:06.525Z,98366.20
2018-12-19T00:57:34.888Z,98376.75
2018-12-19T01:00:03.680Z,98378.16
2018-12-19T01:02:31.983Z,98376.66
2018-12-19T01:05:00.470Z,98378.97
2018-12-19T01:07:28.806Z,98370.54
2018-12-19T01:09:57.181Z,98372.17
2018-12-19T01:12:25.514Z,98370.34
2018-12-19T01:14:53.999Z,98369.33
2018-12-19T01:17:22.357Z,98365.58
2018-12-19T01:19:51.636Z,98374.00
2018-12-19T01:22:20.377Z,98372.66
2018-12-19T01:24:48.727Z,98365.48
2018-12-19T01:27:17.722Z,98365.34
2018-12-19T01:29:45.996Z,98365.31
2018-12-19T01:32:14.289Z,98368.22
2018-12-19T01:34:42.549Z,98361.30
2018-12-19T01:37:10.965Z,98368.71
2018-12-19T01:39:39.265Z,98370.62
2018-12-19T01:42:07.766Z,98370.98
2018-12-19T01:44:36.175Z,98363.48
2018-12-19T01:47:04.474Z,98358.68
2018-12-19T01:49:32.745Z,98359.89
2018-12-19T01:52:01.026Z,98361.63
2018-12-19T01:54:29.395Z,98361.41
2018-12-19T01:56:57.698Z,98368.02
2018-12-19T01:59:26.126Z,98350.83
2018-12-19T02:01:54.510Z,98347.11
2018-12-19T02:04:22.823Z,98354.02
2018-12-19T02:06:51.130Z,98354.25
2018-12-19T02:09:19.415Z,98336.38
2018-12-19T02:11:47.748Z,98338.09
2018-12-19T02:14:16.020Z,98353.34
2018-12-19T02:16:44.291Z,98374.53
2018-12-19T02:19:12.609Z,98356.06
2018-12-19T02:21:40.887Z,98348.58
2018-12-19T02:24:09.364Z,98348.38
2018-12-19T02:26:37.631Z,98328.11
2018-12-19T02:29:06.110Z,98384.11
2018-12-19T02:31:34.393Z,98402.82
2018-12-19T02:34:02.963Z,98378.88
2018-12-19T02:36:31.526Z,98361.59
2018-12-19T02:38:59.840Z,98355.45
2018-12-19T02:41:28.292Z,98345.61
2018-12-19T02:43:56.693Z,98338.80
2018-12-19T02:46:25.003Z,98334.64
2018-12-19T02:48:53.316Z,98334.17
2018-12-19T02:51:21.558Z,98338.27
2018-12-19T02:53:49.823Z,98345.16
2018-12-19T02:56:18.188Z,98339.89
2018-12-19T02:58:46.720Z,98328.39
2018-12-19T03:01:15.140Z,98342.61
2018-12-19T03:03:43.443Z,98353.62
2018-12-19T03:06:11.935Z,98347.89
2018-12-19T03:08:40.265Z,98340.53
2018-12-19T03:11:09.228Z,98334.17
2018-12-19T03:13:37.581Z,98331.66
2018-12-19T03:16:05.919Z,98345.42
2018-12-19T03:18:34.327Z,98347.63
2018-12-19T03:21:02.707Z,98342.88
2018-12-19T03:23:30.998Z,98338.61
2018-12-19T03:25:59.263Z,98350.78
2018-12-19T03:28:27.747Z,98338.44
2018-12-19T03:30:56.177Z,98336.94
2018-12-19T03:33:24.996Z,98330.17
2018-12-19T03:35:53.363Z,98325.84
2018-12-19T03:38:25.290Z,98327.66
2018-12-19T03:40:53.623Z,98321.81
2018-12-19T03:43:22.082Z,98332.17
2018-12-19T03:45:50.366Z,98326.97
2018-12-19T03:49:25.824Z,98340.44
2018-12-19T03:51:54.433Z,98326.53
2018-12-19T03:54:23.155Z,98327.22
2018-12-19T03:56:51.965Z,98338.11
2018-12-19T03:59:20.243Z,98334.80
2018-12-19T04:01:48.680Z,98329.11
2018-12-19T04:04:17.122Z,98317.95
2018-12-19T04:06:45.381Z,98324.69
2018-12-19T04:09:13.736Z,98319.27
2018-12-19T04:11:42.076Z,98316.14
2018-12-19T04:14:10.369Z,98321.72
2018-12-19T04:16:38.694Z,98334.69
2018-12-19T04:19:07.028Z,98335.69
2018-12-19T04:21:35.338Z,98332.45
2018-12-19T04:24:03.657Z,98321.88
2018-12-19T04:26:31.924Z,98322.84
2018-12-19T04:29:00.222Z,98320.73
2018-12-19T04:31:28.624Z,98326.13
2018-12-19T04:33:56.961Z,98326.85
2018-12-19T04:36:25.320Z,98320.50
2018-12-19T04:38:53.666Z,98318.48
2018-12-19T04:41:22.069Z,98324.39
2018-12-19T04:43:50.444Z,98324.39
2018-12-19T04:46:18.774Z,98322.06
2018-12-19T04:48:47.011Z,98332.44
2018-12-19T04:51:15.429Z,98333.69
2018-12-19T04:53:43.697Z,98335.65
2018-12-19T04:56:12.104Z,98347.69
2018-12-19T04:58:40.566Z,98337.58
2018-12-19T05:01:08.870Z,98339.95
2018-12-19T05:03:37.241Z,98346.14
2018-12-19T05:06:05.728Z,98335.87
2018-12-19T05:08:33.991Z,98340.73
2018-12-19T05:11:02.860Z,98339.69
2018-12-19T05:13:31.206Z,98326.34
2018-12-19T05:15:59.574Z,98328.07
2018-12-19T05:18:27.960Z,98318.00
2018-12-19T05:20:56.562Z,98327.73
2018-12-19T05:23:24.852Z,98313.41
2018-12-19T05:25:53.115Z,98310.05
2018-12-19T05:28:21.595Z,98309.16
2018-12-19T05:30:49.913Z,98317.09
2018-12-19T05:33:18.206Z,98314.14
2018-12-19T05:35:46.830Z,98314.69
2018-12-19T05:38:15.332Z,98318.75
2018-12-19T05:40:43.641Z,98322.49
2018-12-19T05:43:11.978Z,98329.55
2018-12-19T05:45:40.252Z,98328.02
2018-12-19T05:48:08.725Z,98318.17
2018-12-19T05:50:37.632Z,98322.05
2018-12-19T05:53:06.179Z,98324.91
2018-12-19T05:55:34.653Z,98338.06
2018-12-19T05:58:02.933Z,98336.00
2018-12-19T06:00:31.323Z,98333.10
2018-12-19T06:02:59.644Z,98348.57
2018-12-19T06:05:28.030Z,98344.83
2018-12-19T06:07:56.486Z,98328.72
2018-12-19T06:10:26.342Z,98337.84
2018-12-19T06:12:54.866Z,98346.78
2018-12-19T06:15:23.423Z,98351.62
2018-12-19T06:17:51.699Z,98349.77
2018-12-19T06:20:20.120Z,98344.09
2018-12-19T06:22:48.565Z,98341.14
2018-12-19T06:25:16.954Z,98338.30
2018-12-19T06:30:30.528Z,98348.09
2018-12-19T06:32:59.020Z,98351.38
2018-12-19T06:35:27.366Z,98355.64
2018-12-19T06:37:55.677Z,98358.69
2018-12-19T06:40:23.964Z,98361.33
2018-12-19T06:42:52.347Z,98356.45
2018-12-19T06:45:20.704Z,98367.00
2018-12-19T06:47:49.063Z,98365.42
2018-12-19T06:50:17.408Z,98370.06
2018-12-19T06:52:45.727Z,98368.27
2018-12-19T06:55:14.044Z,98368.58
2018-12-19T06:57:43.556Z,98360.30
2018-12-19T07:00:11.870Z,98362.16
2018-12-19T07:02:40.854Z,98356.11
2018-12-19T07:05:09.305Z,98361.09
2018-12-19T07:07:37.662Z,98362.95
2018-12-19T07:10:07.021Z,98359.91
2018-12-19T07:12:35.310Z,98348.22
2018-12-19T07:15:03.696Z,98342.26
2018-12-19T07:17:32.170Z,98354.52
2018-12-19T07:20:00.492Z,98351.11
2018-12-19T07:22:28.833Z,98351.13
2018-12-19T07:24:57.134Z,98358.93
2018-12-19T07:27:25.430Z,98358.62
2018-12-19T07:29:53.852Z,98367.52
2018-12-19T07:32:22.202Z,98368.83
2018-12-19T07:34:50.623Z,98377.21
2018-12-19T07:37:19.131Z,98382.09
2018-12-19T07:39:47.866Z,98383.53
2018-12-19T07:42:16.180Z,98384.73
2018-12-19T07:44:45.026Z,98390.56
2018-12-19T07:47:13.328Z,98393.56
2018-12-19T07:49:41.609Z,98396.53
2018-12-19T07:52:09.899Z,98398.05
2018-12-19T07:54:38.299Z,98397.22
2018-12-19T07:57:06.629Z,98398.09
2018-12-19T07:59:35.152Z,98391.64
2018-12-19T08:02:03.484Z,98389.75
2018-12-19T08:04:32.134Z,98389.23
2018-12-19T08:07:00.469Z,98391.91
2018-12-19T08:09:28.929Z,98392.97
2018-12-19T08:11:57.711Z,98390.31
2018-12-19T08:14:26.146Z,98396.05
2018-12-19T08:16:54.439Z,98402.33
2018-12-19T08:19:22.763Z,98401.55
2018-12-19T08:21:51.075Z,98401.83
2018-12-19T08:24:19.432Z,98397.10
2018-12-19T08:26:47.744Z,98404.27
2018-12-19T08:29:16.100Z,98401.20
2018-12-19T08:31:44.460Z,98408.09
2018-12-19T08:34:12.949Z,98409.51
2018-12-19T08:36:41.873Z,98406.14
2018-12-19T08:39:10.166Z,98409.99
2018-12-19T08:41:40.067Z,98408.38
2018-12-19T08:44:08.475Z,98406.22
2018-12-19T08:46:36.817Z,98406.35
2018-12-19T08:49:05.087Z,98401.84
2018-12-19T08:51:33.508Z,98396.02
2018-12-19T08:54:01.942Z,98396.91
2018-12-19T08:56:30.319Z,98403.05
2018-12-19T08:58:58.604Z,98392.61
2018-12-19T09:01:27.035Z,98397.21
2018-12-19T09:03:55.614Z,98396.25
2018-12-19T09:06:24.063Z,98402.08
2018-12-19T09:08:52.512Z,98403.81
2018-12-19T09:11:20.972Z,98399.59
2018-12-19T09:13:49.411Z,98398.77
2018-12-19T09:16:17.849Z,98399.66
2018-12-19T09:18:46.155Z,98394.83
2018-12-19T09:21:14.542Z,98400.31
2018-12-19T09:23:42.866Z,98403.94
2018-12-19T09:26:11.312Z,98403.48
2018-12-19T09:28:39.949Z,98398.80
2018-12-19T09:31:08.400Z,98395.47
2018-12-19T09:33:36.818Z,98399.95
2018-12-19T09:36:05.712Z,98404.23
2018-12-19T09:38:34.013Z,98395.73
2018-12-19T09:41:02.552Z,98392.38
2018-12-19T09:43:30.822Z,98398.12
2018-12-19T09:45:59.195Z,98401.19
2018-12-19T09:48:27.460Z,98392.94
2018-12-19T09:50:55.853Z,98394.92
2018-12-19T09:53:24.665Z,98392.11
2018-12-19T09:55:53.091Z,98390.28
2018-12-19T09:58:21.535Z,98390.11
2018-12-19T10:00:49.896Z,98395.56
2018-12-19T10:03:18.836Z,98388.19
2018-12-19T10:05:47.202Z,98387.59
2018-12-19T10:08:15.577Z,98390.52
2018-12-19T10:10:43.928Z,98384.13
2018-12-19T10:13:12.186Z,98384.77
2018-12-19T10:15:40.414Z,98383.35
2018-12-19T10:18:08.785Z,98379.23
2018-12-19T10:20:37.125Z,98372.06
2018-12-19T10:23:05.452Z,98371.70
2018-12-19T10:25:34.471Z,98369.72
2018-12-19T10:28:02.834Z,98375.97
2018-12-19T10:30:33.221Z,98376.16
2018-12-19T10:33:01.574Z,98372.70
2018-12-19T10:35:30.072Z,98369.49
2018-12-19T10:37:58.398Z,98364.42
2018-12-19T10:40:26.844Z,98348.63
2018-12-19T10:42:55.197Z,98351.28
2018-12-19T10:45:23.498Z,98345.33
2018-12-19T10:47:51.948Z,98351.61
2018-12-19T10:50:20.244Z,98355.61
2018-12-19T10:52:48.638Z,98350.16
2018-12-19T10:55:17.026Z,98346.76
2018-12-19T10:57:45.321Z,98349.19
2018-12-19T11:00:19.092Z,98335.06
2018-12-19T11:02:47.465Z,98333.81
2018-12-19T11:05:15.919Z,98335.91
2018-12-19T11:07:44.299Z,98332.80
2018-12-19T11:10:12.681Z,98325.98
2018-12-19T11:12:41.162Z,98324.18
2018-12-19T11:15:11.086Z,98328.25
2018-12-19T11:17:39.589Z,98321.03
2018-12-19T11:20:09.853Z,98322.72
2018-12-19T11:22:38.286Z,98318.13
2018-12-19T11:25:06.951Z,98320.55
2018-12-19T11:27:35.357Z,98316.06
2018-12-19T11:30:04.254Z,98309.59
2018-12-19T11:32:33.091Z,98307.23
2018-12-19T11:35:01.399Z,98297.56
2018-12-19T11:37:29.686Z,98300.39
2018-12-19T11:39:58.281Z,98296.16
2018-12-19T11:42:26.635Z,98301.69
2018-12-19T11:44:55.108Z,98300.63
2018-12-19T11:47:23.393Z,98294.84
2018-12-19T11:49:51.677Z,98295.67
2018-12-19T11:52:20.322Z,98295.41
2018-12-19T11:54:48.606Z,98299.67
2018-12-19T11:57:17.120Z,98294.47
2018-12-19T11:59:45.492Z,98291.88
2018-12-19T12:02:13.810Z,98290.21
2018-12-19T12:04:42.088Z,98286.30
2018-12-19T12:07:11.375Z,98279.69
2018-12-19T12:09:40.613Z,98263.22
2018-12-19T12:12:09.115Z,98267.46
2018-12-19T12:14:37.504Z,98270.29
2018-12-19T12:17:06.930Z,98265.66
2018-12-19T12:19:35.280Z,98264.48
2018-12-19T12:22:03.705Z,98269.31
2018-12-19T12:24:32.169Z,98266.52
2018-12-19T12:27:00.458Z,98263.98
2018-12-19T12:29:28.739Z,98260.98
2018-12-19T12:31:57.206Z,98259.61
2018-12-19T12:34:25.741Z,98263.63
2018-12-19T12:36:54.518Z,98264.44
2018-12-19T12:39:22.889Z,98256.09
2018-12-19T12:41:52.496Z,98250.16
2018-12-19T12:44:21.357Z,98240.34
2018-12-19T12:46:49.728Z,98243.23
2018-12-19T12:49:18.195Z,98235.51
2018-12-19T12:51:46.814Z,98232.19
2018-12-19T12:54:15.353Z,98236.12
2018-12-19T12:56:43.730Z,98246.98
2018-12-19T12:59:12.084Z,98253.80
2018-12-19T13:01:40.534Z,98256.20
2018-12-19T13:04:08.833Z,98243.91
2018-12-19T13:06:37.327Z,98233.34
2018-12-19T13:09:07.989Z,98225.75
2018-12-19T13:11:36.318Z,98229.11
2018-12-19T13:14:04.990Z,98226.42
2018-12-19T13:16:33.218Z,98229.20
2018-12-19T13:19:01.831Z,98217.55
2018-12-19T13:21:30.231Z,98217.80
2018-12-19T13:23:58.572Z,98217.44
2018-12-19T13:26:27.074Z,98217.78
2018-12-19T13:28:55.630Z,98215.30
2018-12-19T13:31:24.095Z,98203.94
2018-12-19T13:33:52.362Z,98205.78
2018-12-19T13:36:20.781Z,98202.43
2018-12-19T13:38:49.162Z,98196.27
2018-12-19T13:41:17.536Z,98192.18
2018-12-19T13:43:45.897Z,98197.17
2018-12-19T13:46:14.301Z,98186.02
2018-12-19T13:48:42.695Z,98179.72
2018-12-19T13:51:11.130Z,98171.45
2018-12-19T13:53:39.418Z,98173.22
2018-12-19T13:56:07.867Z,98171.98
2018-12-19T13:58:37.202Z,98172.59
2018-12-19T14:01:05.562Z,98162.69
2018-12-19T14:03:33.971Z,98160.48
2018-12-19T14:06:02.390Z,98158.55
2018-12-19T14:08:30.721Z,98158.20
2018-12-19T14:10:59.126Z,98162.13
2018-12-19T14:13:28.031Z,98162.16
2018-12-19T14:15:56.446Z,98160.55
2018-12-19T14:18:24.894Z,98152.69
2018-12-19T14:20:53.258Z,98156.14
2018-12-19T14:23:21.741Z,98154.42
2018-12-19T14:25:50.040Z,98145.67
2018-12-19T14:28:25.058Z,98141.40
2018-12-19T14:30:53.423Z,98151.14
2018-12-19T14:33:21.888Z,98150.48
2018-12-19T14:35:50.254Z,98149.69
2018-12-19T14:38:18.721Z,98152.02
2018-12-19T14:40:46.982Z,98153.23
2018-12-19T14:43:15.281Z,98160.08
2018-12-19T14:45:43.620Z,98162.74
2018-12-19T14:48:12.334Z,98159.25
2018-12-19T14:50:40.645Z,98164.37
2018-12-19T14:53:08.978Z,98163.80
2018-12-19T14:55:37.241Z,98161.82
2018-12-19T14:58:05.754Z,98158.67
2018-12-19T15:00:34.389Z,98154.59
2018-12-19T15:03:02.722Z,98155.27
2018-12-19T15:05:31.260Z,98158.57
2018-12-19T15:07:59.582Z,98161.41
2018-12-19T15:10:27.876Z,98154.79
2018-12-19T15:12:56.381Z,98148.95
2018-12-19T15:15:24.734Z,98148.66
2018-12-19T15:17:53.123Z,98140.97
2018-12-19T15:20:22.205Z,98140.47
2018-12-19T15:22:50.740Z,98132.79
2018-12-19T15:25:19.127Z,98126.31
2018-12-19T15:27:47.531Z,98130.86
2018-12-19T15:30:15.918Z,98131.19
2018-12-19T15:32:44.400Z,98130.30
2018-12-19T15:35:12.763Z,98134.94
2018-12-19T15:37:41.371Z,98128.92
2018-12-19T15:40:10.015Z,98129.12
2018-12-19T15:42:38.554Z,98126.78
2018-12-19T15:45:07.059Z,98139.80
2018-12-19T15:47:35.889Z,98129.64
2018-12-19T15:50:05.435Z,98136.19
2018-12-19T15:52:33.756Z,98139.61
2018-12-19T15:55:02.358Z,98138.70
2018-12-19T15:57:30.862Z,98139.78
2018-12-19T15:59:59.194Z,98135.45
2018-12-19T16:02:27.716Z,98141.81
2018-12-19T16:04:56.002Z,98138.84
2018-12-19T16:07:24.315Z,98144.38
2018-12-19T16:09:52.676Z,98141.79
2018-12-19T16:12:21.233Z,98141.20
2018-12-19T16:14:50.253Z,98138.84
2018-12-19T16:17:18.571Z,98142.06
2018-12-19T16:19:46.986Z,98150.49
2018-12-19T16:22:15.346Z,98148.24
2018-12-19T16:24:43.760Z,98149.27
2018-12-19T16:27:12.320Z,98141.29
2018-12-19T16:29:40.680Z,98150.30
2018-12-19T16:32:09.042Z,98151.63
2018-12-19T16:34:38.390Z,98157.61
2018-12-19T16:37:07.781Z,98152.25
2018-12-19T16:39:36.410Z,98155.70
2018-12-19T16:42:05.628Z,98170.83
2018-12-19T16:44:34.338Z,98168.16
2018-12-19T16:47:02.716Z,98166.98
2018-12-19T16:49:31.653Z,98168.84
2018-12-19T16:52:00.088Z,98162.31
2018-12-19T16:54:28.350Z,98171.96
2018-12-19T16:56:57.351Z,98166.57
2018-12-19T16:59:26.170Z,98172.21
2018-12-19T17:01:54.809Z,98167.44
2018-12-19T17:04:23.092Z,98168.38
2018-12-19T17:06:51.390Z,98165.30
2018-12-19T17:09:19.777Z,98174.38
2018-12-19T17:11:48.107Z,98181.17
2018-12-19T17:14:16.558Z,98175.36
2018-12-19T17:16:44.833Z,98179.84
2018-12-19T17:19:13.272Z,98174.12
2018-12-19T17:21:41.651Z,98177.41
2018-12-19T17:24:10.038Z,98172.70
2018-12-19T17:26:38.603Z,98176.91
2018-12-19T17:29:07.869Z,98178.55
2018-12-19T17:31:36.224Z,98178.52
2018-12-19T17:34:04.494Z,98179.14
2018-12-19T17:36:33.191Z,98175.45
2018-12-19T17:39:01.485Z,98172.57
2018-12-19T17:41:29.818Z,98179.95
2018-12-19T17:43:58.085Z,98175.81
2018-12-19T17:46:27.142Z,98187.66
2018-12-19T17:48:55.580Z,98184.36
2018-12-19T17:51:23.918Z,98191.91
2018-12-19T17:53:52.201Z,98196.05
2018-12-19T17:56:20.579Z,98200.60
2018-12-19T17:58:48.912Z,98203.73
2018-12-19T18:01:17.440Z,98205.20
2018-12-19T18:03:45.830Z,98207.72
2018-12-19T18:06:14.121Z,98216.34
2018-12-19T18:08:42.457Z,98216.09
2018-12-19T18:11:10.746Z,98212.33
2018-12-19T18:13:39.576Z,98215.38
2018-12-19T18:16:07.926Z,98200.85
2018-12-19T18:18:36.241Z,98208.66
2018-12-19T18:21:04.682Z,98206.08
2018-12-19T18:23:33.101Z,98208.52
2018-12-19T18:26:01.788Z,98202.53
2018-12-19T18:28:30.186Z,98196.59
2018-12-19T18:30:58.563Z,98199.99
2018-12-19T18:33:26.880Z,98204.87
2018-12-19T18:35:55.353Z,98198.97
2018-12-19T18:38:23.713Z,98204.06
2018-12-19T18:40:52.043Z,98196.41
2018-12-19T18:43:20.294Z,98200.77
2018-12-19T18:45:48.815Z,98196.68
2018-12-19T18:48:17.113Z,98194.03
2018-12-19T18:50:45.415Z,98203.69
2018-12-19T18:53:13.690Z,98196.34
2018-12-19T18:55:42.051Z,98203.14
2018-12-19T18:58:10.384Z,98192.95
2018-12-19T19:00:39.087Z,98199.68
2018-12-19T19:03:07.528Z,98198.37
2018-12-19T19:05:35.929Z,98195.57
2018-12-19T19:08:04.460Z,98191.31
2018-12-19T19:10:32.812Z,98197.73
2018-12-19T19:13:01.182Z,98191.54
2018-12-19T19:15:29.548Z,98184.92
2018-12-19T19:17:57.829Z,98187.31
2018-12-19T19:20:26.104Z,98186.64
2018-12-19T19:22:54.470Z,98179.55
2018-12-19T19:25:22.981Z,98184.43
2018-12-19T19:27:51.328Z,98179.41
2018-12-19T19:30:19.659Z,98177.74
2018-12-19T19:32:48.123Z,98185.09
2018-12-19T19:35:16.615Z,98182.78
2018-12-19T19:37:44.950Z,98178.41
2018-12-19T19:40:13.402Z,98179.30
2018-12-19T19:42:41.740Z,98176.40
2018-12-19T19:45:10.099Z,98172.08
2018-12-19T19:47:38.590Z,98168.66
2018-12-19T19:50:07.154Z,98169.42
2018-12-19T19:52:35.459Z,98174.53
2018-12-19T19:55:03.985Z,98173.45
2018-12-19T19:57:32.248Z,98176.66
2018-12-19T20:00:00.572Z,98163.59
2018-12-19T20:03:32.605Z,98166.36
2018-12-19T20:06:00.885Z,98169.00
2018-12-19T20:08:29.190Z,98167.91
2018-12-19T20:10:57.521Z,98172.64
2018-12-19T20:13:25.794Z,98176.88
2018-12-19T20:15:54.183Z,98175.38
2018-12-19T20:18:22.500Z,98176.23
2018-12-19T20:20:50.790Z,98179.61
2018-12-19T20:23:19.169Z,98181.59
2018-12-19T20:25:47.649Z,98176.65
2018-12-19T20:28:16.131Z,98172.34
2018-12-19T20:30:44.495Z,98168.55
2018-12-19T20:33:12.829Z,98172.39
2018-12-19T20:35:41.246Z,98165.91
2018-12-19T20:38:09.727Z,98160.29
2018-12-19T20:40:37.997Z,98168.66
2018-12-19T20:43:06.970Z,98170.52
2018-12-19T20:45:35.464Z,98170.09
2018-12-19T20:48:03.783Z,98171.20
2018-12-19T20:50:32.460Z,98172.79
2018-12-19T20:53:00.722Z,98168.44
2018-12-19T20:55:28.951Z,98166.69
2018-12-19T20:57:57.204Z,98163.05
2018-12-19T21:00:25.912Z,98162.47
2018-12-19T21:02:54.214Z,98161.96
2018-12-19T21:05:22.780Z,98167.32
2018-12-19T21:07:51.160Z,98168.75
2018-12-19T21:10:19.683Z,98171.09
2018-12-19T21:12:50.484Z,98172.98
2018-12-19T21:15:21.278Z,98169.45
2018-12-19T21:17:55.603Z,98169.77
2018-12-19T21:20:23.985Z,98163.33
2018-12-19T21:22:52.768Z,98163.28
2018-12-19T21:25:21.230Z,98162.36
2018-12-19T21:27:50.117Z,98165.33
2018-12-19T21:30:19.282Z,98166.03
2018-12-19T21:32:47.631Z,98160.41
2018-12-19T21:35:16.053Z,98164.05
2018-12-19T21:37:44.896Z,98166.45
2018-12-19T21:40:13.515Z,98159.78
2018-12-19T21:42:43.330Z,98163.22
2018-12-19T21:45:13.376Z,98161.08
2018-12-19T21:47:43.639Z,98155.70
2018-12-19T21:50:12.630Z,98155.42
2018-12-19T21:52:41.774Z,98161.44
2018-12-19T21:55:10.546Z,98155.19
2018-12-19T21:57:38.891Z,98153.19
2018-12-19T22:00:13.234Z,98152.71
2018-12-19T22:02:41.585Z,98151.75
2018-12-19T22:05:10.235Z,98152.14
2018-12-19T22:07:39.566Z,98137.33
2018-12-19T22:10:07.931Z,98138.72
2018-12-19T22:12:36.278Z,98142.95
2018-12-19T22:15:05.177Z,98146.52
2018-12-19T22:17:38.851Z,98143.27
2018-12-19T22:20:07.401Z,98150.48
2018-12-19T22:22:35.682Z,98153.48
2018-12-19T22:25:04.261Z,98162.53
2018-12-19T22:27:32.725Z,98158.49
2018-12-19T22:30:01.271Z,98169.45
2018-12-19T22:32:30.067Z,98168.58
2018-12-19T22:34:58.496Z,98157.88
2018-12-19T22:37:26.843Z,98155.75
2018-12-19T22:39:55.454Z,98151.63
2018-12-19T22:42:23.994Z,98153.40
2018-12-19T22:44:52.529Z,98155.75
2018-12-19T22:47:21.747Z,98155.16
2018-12-19T22:49:50.300Z,98150.45
2018-12-19T22:52:18.974Z,98151.99
2018-12-19T22:54:47.646Z,98148.77
2018-12-19T22:57:16.633Z,98152.03
2018-12-19T22:59:45.311Z,98150.30
2018-12-19T23:02:19.069Z,98153.59
2018-12-19T23:04:47.687Z,98149.86
2018-12-19T23:07:16.037Z,98147.80
2018-12-19T23:09:44.421Z,98144.66
2018-12-19T23:12:19.396Z,98143.04
2018-12-19T23:14:47.817Z,98147.53
2018-12-19T23:17:21.768Z,98144.75
2018-12-19T23:19:50.324Z,98148.48
2018-12-19T23:22:18.785Z,98154.95
2018-12-19T23:24:47.567Z,98157.80
2018-12-19T23:27:16.036Z,98157.53
2018-12-19T23:29:45.011Z,98159.19
2018-12-19T23:32:15.883Z,98167.45
2018-12-19T23:34:44.320Z,98164.98
2018-12-19T23:37:12.721Z,98159.31
2018-12-19T23:39:41.398Z,98164.73
2018-12-19T23:42:11.924Z,98169.91
2018-12-19T23:44:40.534Z,98166.39
2018-12-19T23:47:09.944Z,98165.30
2018-12-19T23:49:38.302Z,98160.91
2018-12-19T23:52:06.665Z,98162.00
2018-12-19T23:54:34.992Z,98162.53
2018-12-19T23:57:03.459Z,98168.73
2018-12-19T23:59:32.871Z,98160.84
